Time;durP1;ratioP1;P1;durP2;ratioP2;P2;SDS_P1;SDS_P2;PMS_P1;PMS_P2;Temp;Humidity;BMP_temperature;BMP_pressure;BME280_temperature;BME280_humidity;BME280_pressure;Samples;Min_cycle;Max_cycle;Signal;HPM_P1;HPM_P2
2022/07/22 00:00:54;;;;;;;;;;;;;;;24.21;44.66;100561.59;5073359;28;20270;-72
2022/07/22 00:03:20;;;;;;;;;;;;;;;24.20;44.79;100558.03;5075935;28;19935;-72
2022/07/22 00:05:45;;;;;;;;;;;;;;;24.19;44.66;100556.41;5093544;28;19993;-72
2022/07/22 00:08:10;;;;;;;;;;;;;;;24.21;44.71;100558.84;5093350;28;19916;-72
2022/07/22 00:10:36;;;;;;;;;;;;;;;24.22;44.78;100563.22;5093653;28;19916;-73
2022/07/22 00:13:01;;;;;;;;;;;;;;;24.19;44.89;100562.66;5093674;28;19916;-72
2022/07/22 00:15:26;;;;;;;;;;;;;;;24.19;44.90;100561.84;5093647;28;19916;-72
2022/07/22 00:17:51;;;;;;;;;;;;;;;24.19;44.42;100562.66;5093686;28;20312;-72
2022/07/22 00:20:19;;;;;;;;;;;;;;;24.17;44.88;100553.94;5093557;28;19955;-73
2022/07/22 00:22:44;;;;;;;;;;;;;;;24.18;44.68;100560.22;5093379;28;20362;-72
2022/07/22 00:25:09;;;;;;;;;;;;;;;24.18;44.80;100552.84;5092990;28;19930;-73
2022/07/22 00:27:34;;;;;;;;;;;;;;;24.18;44.75;100554.75;5093430;28;20280;-73
2022/07/22 00:30:00;;;;;;;;;;;;;;;24.17;44.70;100553.94;5093128;28;19920;-73
2022/07/22 00:32:25;;;;;;;;;;;;;;;24.18;44.56;100560.22;5093133;28;19916;-73
2022/07/22 00:34:50;;;;;;;;;;;;;;;24.17;44.71;100553.13;5093524;28;19916;-72
2022/07/22 00:37:16;;;;;;;;;;;;;;;24.18;44.77;100554.75;5093739;28;19916;-72
2022/07/22 00:39:41;;;;;;;;;;;;;;;24.17;44.62;100553.13;5093132;28;19971;-72
2022/07/22 00:42:06;;;;;;;;;;;;;;;24.16;44.67;100555.03;5092101;28;19923;-72
2022/07/22 00:44:31;;;;;;;;;;;;;;;24.17;44.81;100556.66;5093150;28;19916;-72
2022/07/22 00:46:57;;;;;;;;;;;;;;;24.17;44.63;100551.22;5093119;28;19960;-72
2022/07/22 00:49:22;;;;;;;;;;;;;;;24.18;44.54;100557.47;5093249;28;19999;-72
2022/07/22 00:51:47;;;;;;;;;;;;;;;24.17;44.46;100550.41;5093324;28;19939;-72
2022/07/22 00:54:13;;;;;;;;;;;;;;;24.17;44.83;100548.47;5093226;28;20278;-72
2022/07/22 00:56:38;;;;;;;;;;;;;;;24.17;44.69;100548.47;5093184;28;20358;-72
2022/07/22 00:59:04;;;;;;;;;;;;;;;24.16;44.93;100546.00;5093190;28;19916;-72
2022/07/22 01:01:29;;;;;;;;;;;;;;;24.15;44.88;100542.47;5093041;28;19923;-72
2022/07/22 01:03:54;;;;;;;;;;;;;;;24.16;44.56;100554.22;5090386;28;20019;-72
2022/07/22 01:06:20;;;;;;;;;;;;;;;24.16;44.60;100554.22;5076042;28;20315;-72
2022/07/22 01:08:45;;;;;;;;;;;;;;;24.17;44.85;100544.94;5076465;28;19916;-72
2022/07/22 01:11:11;;;;;;;;;;;;;;;24.15;44.89;100552.59;5076449;28;20347;-73
2022/07/22 01:13:36;;;;;;;;;;;;;;;24.16;44.88;100541.41;5076061;28;19916;-73
2022/07/22 01:16:02;;;;;;;;;;;;;;;24.15;44.64;100545.22;5076378;28;19916;-73
2022/07/22 01:18:27;;;;;;;;;;;;;;;24.17;44.90;100547.66;5076411;28;19917;-73
2022/07/22 01:20:53;;;;;;;;;;;;;;;24.16;44.74;100541.41;5076216;28;19966;-73
2022/07/22 01:23:18;;;;;;;;;;;;;;;24.15;44.71;100539.75;5075959;28;19917;-73
2022/07/22 01:25:43;;;;;;;;;;;;;;;24.16;44.62;100540.56;5075773;28;19987;-72
2022/07/22 01:28:08;;;;;;;;;;;;;;;24.17;44.61;100542.22;5076328;28;20029;-72
2022/07/22 01:30:34;;;;;;;;;;;;;;;24.15;44.84;100545.22;5076100;28;20363;-72
2022/07/22 01:32:59;;;;;;;;;;;;;;;24.15;44.84;100538.94;5076049;28;19986;-73
2022/07/22 01:35:24;;;;;;;;;;;;;;;24.15;44.98;100538.94;5075638;28;19916;-72
2022/07/22 01:37:49;;;;;;;;;;;;;;;24.14;44.83;100529.91;5075941;28;19920;-72
2022/07/22 01:40:15;;;;;;;;;;;;;;;24.15;44.83;100523.38;5075834;28;20340;-72
2022/07/22 01:42:40;;;;;;;;;;;;;;;24.16;44.90;100524.16;5075863;28;19920;-72
2022/07/22 01:45:06;;;;;;;;;;;;;;;24.16;44.97;100526.91;5075498;28;19962;-72
2022/07/22 01:47:31;;;;;;;;;;;;;;;24.15;44.84;100528.81;5075582;28;19917;-72
2022/07/22 01:49:56;;;;;;;;;;;;;;;24.14;44.92;100520.91;5075679;28;19923;-72
2022/07/22 01:52:21;;;;;;;;;;;;;;;24.14;45.12;100526.38;5075700;28;19916;-73
2022/07/22 01:54:47;;;;;;;;;;;;;;;24.13;45.01;100520.09;5075666;28;19917;-73
2022/07/22 01:57:12;;;;;;;;;;;;;;;24.15;44.89;100534.28;5075269;28;19923;-73
2022/07/22 01:59:37;;;;;;;;;;;;;;;24.15;44.77;100523.38;5075666;28;19916;-73
2022/07/22 02:02:02;;;;;;;;;;;;;;;24.13;44.89;100525.56;5075464;28;20397;-73
2022/07/22 02:04:28;;;;;;;;;;;;;;;24.13;44.99;100525.56;5085611;28;19916;-73
2022/07/22 02:06:53;;;;;;;;;;;;;;;24.12;44.69;100518.44;5095636;28;20377;-72
2022/07/22 02:09:18;;;;;;;;;;;;;;;24.13;44.70;100514.63;5095245;28;19916;-72
2022/07/22 02:11:43;;;;;;;;;;;;;;;24.13;44.94;100520.09;5095555;28;19973;-72
2022/07/22 02:14:09;;;;;;;;;;;;;;;24.11;44.99;100514.09;5094798;28;19916;-72
2022/07/22 02:16:34;;;;;;;;;;;;;;;24.11;44.93;100519.56;5095133;28;19961;-72
2022/07/22 02:18:59;;;;;;;;;;;;;;;24.10;44.73;100512.44;5095103;28;19948;-72
2022/07/22 02:21:28;;;;;;;;;;;;;;;24.10;44.93;100512.44;5095267;28;19922;-72
2022/07/22 02:23:53;;;;;;;;;;;;;;;24.09;44.99;100512.72;5094769;28;19988;-71
2022/07/22 02:26:19;;;;;;;;;;;;;;;24.07;44.91;100510.25;5095140;28;19999;-72
2022/07/22 02:28:44;;;;;;;;;;;;;;;24.08;44.87;100502.91;5094825;28;19920;-72
2022/07/22 02:31:09;;;;;;;;;;;;;;;24.09;44.75;100508.06;5095190;28;19920;-72
2022/07/22 02:33:34;;;;;;;;;;;;;;;24.10;45.07;100511.63;5095018;28;20032;-72
2022/07/22 02:36:00;;;;;;;;;;;;;;;24.09;44.82;100510.81;5095101;28;19924;-72
2022/07/22 02:38:25;;;;;;;;;;;;;;;24.07;44.90;100504.81;5094711;28;20401;-72
2022/07/22 02:40:50;;;;;;;;;;;;;;;24.07;44.91;100514.91;5094615;28;19928;-72
2022/07/22 02:43:15;;;;;;;;;;;;;;;24.09;44.81;100512.72;5094994;28;19962;-72
2022/07/22 02:45:41;;;;;;;;;;;;;;;24.09;44.86;100512.72;5095327;28;19916;-72
2022/07/22 02:48:06;;;;;;;;;;;;;;;24.07;44.95;100517.66;5094861;28;19916;-72
2022/07/22 02:50:32;;;;;;;;;;;;;;;24.08;44.83;100517.38;5094844;28;20347;-72
2022/07/22 02:52:58;;;;;;;;;;;;;;;24.07;45.02;100515.72;5094715;28;19927;-72
2022/07/22 02:55:23;;;;;;;;;;;;;;;24.06;45.18;100514.09;5094409;28;19916;-72
2022/07/22 02:57:48;;;;;;;;;;;;;;;24.06;44.87;100514.09;5094664;28;20054;-72
2022/07/22 03:00:14;;;;;;;;;;;;;;;24.07;44.76;100510.25;5094562;28;20359;-72
2022/07/22 03:02:39;;;;;;;;;;;;;;;24.06;44.90;100513.25;5094373;28;19916;-72
2022/07/22 03:05:05;;;;;;;;;;;;;;;24.04;44.81;100510.81;5079842;28;19923;-72
2022/07/22 03:07:30;;;;;;;;;;;;;;;24.04;44.76;100513.53;5074116;28;19920;-72
2022/07/22 03:09:56;;;;;;;;;;;;;;;24.04;44.97;100510.81;5073907;28;20349;-72
2022/07/22 03:12:21;;;;;;;;;;;;;;;24.05;44.95;100515.19;5073731;28;19917;-72
2022/07/22 03:14:46;;;;;;;;;;;;;;;24.05;44.74;100509.72;5074093;28;19923;-72
2022/07/22 03:17:11;;;;;;;;;;;;;;;24.04;45.12;100507.25;5074076;28;19917;-73
2022/07/22 03:19:37;;;;;;;;;;;;;;;24.05;45.18;100509.72;5074343;28;19923;-73
2022/07/22 03:22:02;;;;;;;;;;;;;;;24.00;45.25;100509.72;5073948;28;19985;-73
2022/07/22 03:24:27;;;;;;;;;;;;;;;24.01;45.42;100511.38;5072781;28;19925;-72
2022/07/22 03:26:52;;;;;;;;;;;;;;;24.05;45.25;100507.00;5073454;28;19920;-72
2022/07/22 03:29:18;;;;;;;;;;;;;;;24.03;45.13;100503.72;5073886;28;19961;-72
2022/07/22 03:31:43;;;;;;;;;;;;;;;24.06;45.08;100502.34;5073845;28;19917;-72
2022/07/22 03:34:08;;;;;;;;;;;;;;;24.07;45.12;100510.25;5073823;28;19917;-72
2022/07/22 03:36:33;;;;;;;;;;;;;;;24.09;45.09;100505.34;5073629;28;20393;-72
2022/07/22 03:38:59;;;;;;;;;;;;;;;24.08;45.14;100506.44;5073807;28;19923;-72
2022/07/22 03:41:24;;;;;;;;;;;;;;;24.08;45.45;100511.91;5073718;28;20277;-72
2022/07/22 03:43:49;;;;;;;;;;;;;;;24.11;45.19;100502.34;5073846;28;19940;-72
2022/07/22 03:46:15;;;;;;;;;;;;;;;24.15;44.74;100501.53;5073339;28;19920;-72
2022/07/22 03:48:40;;;;;;;;;;;;;;;24.16;44.79;100503.16;5073686;28;19921;-72
2022/07/22 03:51:05;;;;;;;;;;;;;;;24.19;44.90;100501.78;5073765;28;20271;-72
2022/07/22 03:53:32;;;;;;;;;;;;;;;24.21;45.20;100499.59;5073609;28;19917;-72
2022/07/22 03:55:57;;;;;;;;;;;;;;;24.22;45.03;100494.97;5073591;28;19917;-72
2022/07/22 03:58:24;;;;;;;;;;;;;;;24.23;44.99;100494.66;5073607;28;19923;-72
2022/07/22 04:00:49;;;;;;;;;;;;;;;24.23;45.08;100496.59;5074079;28;20398;-72
2022/07/22 04:03:14;;;;;;;;;;;;;;;24.23;45.17;100485.66;5073201;28;19963;-72
2022/07/22 04:05:40;;;;;;;;;;;;;;;24.25;44.99;100486.19;5092102;28;19920;-72
2022/07/22 04:08:05;;;;;;;;;;;;;;;24.26;44.73;100480.47;5093196;28;20291;-72
2022/07/22 04:10:30;;;;;;;;;;;;;;;24.29;44.92;100484.56;5093670;28;20015;-72
2022/07/22 04:12:55;;;;;;;;;;;;;;;24.28;44.54;100477.47;5093379;28;19917;-72
2022/07/22 04:15:21;;;;;;;;;;;;;;;24.30;44.48;100472.53;5093610;28;19916;-72
2022/07/22 04:17:46;;;;;;;;;;;;;;;24.26;44.59;100475.00;5093233;28;20403;-72
2022/07/22 04:20:11;;;;;;;;;;;;;;;24.32;44.69;100473.09;5093610;28;19970;-73
2022/07/22 04:22:36;;;;;;;;;;;;;;;24.31;44.22;100475.00;5093564;28;20271;-73
2022/07/22 04:25:02;;;;;;;;;;;;;;;24.32;44.23;100478.56;5093191;28;20412;-73
2022/07/22 04:27:27;;;;;;;;;;;;;;;24.31;44.31;100482.38;5091789;28;19924;-73
2022/07/22 04:29:52;;;;;;;;;;;;;;;24.28;44.30;100483.72;5093347;28;19988;-73
2022/07/22 04:32:18;;;;;;;;;;;;;;;24.31;44.40;100477.72;5094184;28;19916;-73
2022/07/22 04:34:43;;;;;;;;;;;;;;;24.34;44.28;100477.16;5093271;28;19916;-71
2022/07/22 04:37:08;;;;;;;;;;;;;;;24.36;44.20;100474.97;5095824;28;19917;-70
2022/07/22 04:39:33;;;;;;;;;;;;;;;24.37;44.31;100476.63;5097077;28;19916;-70
2022/07/22 04:41:59;;;;;;;;;;;;;;;24.37;44.03;100471.16;5097060;28;20389;-70
2022/07/22 04:44:24;;;;;;;;;;;;;;;24.37;44.33;100471.16;5097062;28;19916;-70
2022/07/22 04:46:49;;;;;;;;;;;;;;;24.34;44.63;100470.91;5096850;28;20295;-70
2022/07/22 04:49:14;;;;;;;;;;;;;;;24.35;44.39;100472.53;5096942;28;19963;-70
2022/07/22 04:51:40;;;;;;;;;;;;;;;24.33;44.50;100469.25;5096903;28;19924;-70
2022/07/22 04:54:05;;;;;;;;;;;;;;;24.37;44.24;100470.34;5096558;28;19916;-70
2022/07/22 04:56:30;;;;;;;;;;;;;;;24.41;44.71;100462.41;5097002;28;19927;-70
2022/07/22 04:58:55;;;;;;;;;;;;;;;24.39;44.51;100462.69;5096651;28;19967;-69
2022/07/22 05:01:21;;;;;;;;;;;;;;;24.42;44.28;100464.84;5096417;28;19916;-69
2022/07/22 05:03:46;;;;;;;;;;;;;;;24.41;44.00;100460.50;5094633;28;19923;-69
2022/07/22 05:06:11;;;;;;;;;;;;;;;24.38;44.21;100455.59;5076379;28;19920;-69
2022/07/22 05:08:37;;;;;;;;;;;;;;;24.43;44.46;100452.84;5075937;28;19916;-69
2022/07/22 05:11:02;;;;;;;;;;;;;;;24.44;44.20;100456.38;5076265;28;19952;-69
2022/07/22 05:13:27;;;;;;;;;;;;;;;24.36;44.46;100457.78;5076458;28;20258;-70
2022/07/22 05:15:53;;;;;;;;;;;;;;;24.41;44.39;100465.16;5075805;28;20010;-70
2022/07/22 05:18:18;;;;;;;;;;;;;;;24.37;44.72;100459.44;5076128;28;19917;-69
2022/07/22 05:20:43;;;;;;;;;;;;;;;24.38;45.08;100461.03;5076136;28;20402;-70
2022/07/22 05:23:09;;;;;;;;;;;;;;;24.36;45.15;100464.06;5076497;28;19916;-69
2022/07/22 05:25:34;;;;;;;;;;;;;;;24.36;44.92;100460.50;5075499;28;20015;-69
2022/07/22 05:27:59;;;;;;;;;;;;;;;24.37;45.28;100467.63;5075862;28;19916;-69
2022/07/22 05:30:25;;;;;;;;;;;;;;;24.34;45.43;100473.63;5075813;28;20347;-67
2022/07/22 05:32:50;;;;;;;;;;;;;;;24.36;45.08;100461.31;5075679;28;20367;-67
2022/07/22 05:35:16;;;;;;;;;;;;;;;24.36;45.61;100464.06;5075579;28;20019;-67
2022/07/22 05:37:41;;;;;;;;;;;;;;;24.33;45.53;100459.13;5075685;28;19917;-67
2022/07/22 05:40:07;;;;;;;;;;;;;;;24.33;46.03;100461.06;5075721;28;19920;-67
2022/07/22 05:42:32;;;;;;;;;;;;;;;24.42;45.30;100456.66;5075368;28;19923;-67
2022/07/22 05:44:57;;;;;;;;;;;;;;;24.42;44.87;100459.38;5075329;28;19923;-67
2022/07/22 05:47:22;;;;;;;;;;;;;;;24.40;45.19;100453.38;5074735;28;19964;-67
2022/07/22 05:49:48;;;;;;;;;;;;;;;24.50;44.89;100453.34;5075481;28;20359;-67
2022/07/22 05:52:13;;;;;;;;;;;;;;;24.47;45.21;100451.16;5075352;28;20258;-66
2022/07/22 05:54:39;;;;;;;;;;;;;;;24.51;45.85;100449.53;5075565;28;19963;-66
2022/07/22 05:57:05;;;;;;;;;;;;;;;24.59;45.47;100450.06;5074369;28;19917;-66
2022/07/22 05:59:30;;;;;;;;;;;;;;;24.59;45.52;100450.06;5075285;28;20321;-66
2022/07/22 06:01:55;;;;;;;;;;;;;;;24.64;45.31;100453.59;5075543;28;20007;-66
2022/07/22 06:04:21;;;;;;;;;;;;;;;24.58;45.50;100460.19;5081163;28;20324;-67
2022/07/22 06:06:46;;;;;;;;;;;;;;;24.65;45.12;100460.72;5095546;28;20332;-67
2022/07/22 06:09:11;;;;;;;;;;;;;;;24.66;46.05;100459.59;5095362;28;20057;-66
2022/07/22 06:11:37;;;;;;;;;;;;;;;24.67;45.36;100455.78;5095385;28;19916;-66
2022/07/22 06:14:02;;;;;;;;;;;;;;;24.72;45.44;100453.00;5095433;28;19939;-67
2022/07/22 06:16:27;;;;;;;;;;;;;;;24.67;45.50;100453.03;5095230;28;20406;-67
2022/07/22 06:18:53;;;;;;;;;;;;;;;24.55;46.03;100449.81;5095500;28;19961;-66
2022/07/22 06:21:18;;;;;;;;;;;;;;;24.59;46.40;100450.88;5094862;28;19916;-66
2022/07/22 06:23:43;;;;;;;;;;;;;;;24.60;45.75;100451.72;5095160;28;19958;-66
2022/07/22 06:26:08;;;;;;;;;;;;;;;24.57;46.16;100446.81;5095183;28;20282;-67
2022/07/22 06:28:34;;;;;;;;;;;;;;;24.61;46.09;100456.91;5095360;28;20012;-67
2022/07/22 06:30:59;;;;;;;;;;;;;;;24.59;46.02;100456.34;5095112;28;20293;-67
2022/07/22 06:33:24;;;;;;;;;;;;;;;24.59;46.05;100452.81;5095191;28;19930;-67
2022/07/22 06:35:49;;;;;;;;;;;;;;;24.57;46.12;100452.28;5094869;28;20271;-67
2022/07/22 06:38:15;;;;;;;;;;;;;;;24.62;46.01;100455.00;5095083;28;19923;-67
2022/07/22 06:40:40;;;;;;;;;;;;;;;24.71;45.82;100451.38;5095026;28;20278;-67
2022/07/22 06:43:05;;;;;;;;;;;;;;;24.81;45.20;100446.97;5094953;28;19916;-66
2022/07/22 06:45:31;;;;;;;;;;;;;;;24.76;45.32;100445.06;5094525;28;20313;-67
2022/07/22 06:47:56;;;;;;;;;;;;;;;24.75;45.96;100446.19;5094623;28;19923;-67
2022/07/22 06:50:21;;;;;;;;;;;;;;;24.76;45.74;100450.53;5093629;28;19981;-67
2022/07/22 06:52:48;;;;;;;;;;;;;;;24.77;45.60;100449.44;5094350;28;20438;-67
2022/07/22 06:55:14;;;;;;;;;;;;;;;24.74;45.88;100452.75;5094524;28;19916;-67
2022/07/22 06:57:39;;;;;;;;;;;;;;;24.84;45.54;100451.88;5094342;28;20370;-66
2022/07/22 07:00:05;;;;;;;;;;;;;;;24.82;45.49;100443.97;5094000;28;19970;-66
2022/07/22 07:02:30;;;;;;;;;;;;;;;24.79;46.23;100447.25;5094483;28;19924;-66
2022/07/22 07:04:56;;;;;;;;;;;;;;;24.76;46.12;100447.81;5084442;28;20363;-66
2022/07/22 07:07:21;;;;;;;;;;;;;;;24.78;45.75;100453.81;5073781;28;19920;-67
2022/07/22 07:09:46;;;;;;;;;;;;;;;24.72;46.55;100447.56;5073984;28;20313;-66
2022/07/22 07:12:11;;;;;;;;;;;;;;;24.76;46.01;100445.06;5073881;28;19948;-66
2022/07/22 07:14:37;;;;;;;;;;;;;;;24.71;46.14;100451.38;5073850;28;20259;-71
2022/07/22 07:17:02;;;;;;;;;;;;;;;24.74;46.26;100447.28;5073939;28;19916;-71
2022/07/22 07:19:27;;;;;;;;;;;;;;;24.76;46.25;100444.25;5073670;28;20361;-71
2022/07/22 07:21:53;;;;;;;;;;;;;;;24.79;46.32;100439.06;5073991;28;19920;-71
2022/07/22 07:24:18;;;;;;;;;;;;;;;24.74;46.09;100436.34;5073665;28;20375;-71
2022/07/22 07:26:43;;;;;;;;;;;;;;;24.73;46.54;100435.53;5073443;28;19917;-71
2022/07/22 07:29:10;;;;;;;;;;;;;;;24.72;46.33;100435.81;5072944;28;20728;-71
2022/07/22 07:31:36;;;;;;;;;;;;;;;24.69;46.25;100442.63;5073565;28;19917;-71
2022/07/22 07:34:01;;;;;;;;;;;;;;;24.81;46.10;100447.78;5072474;28;19959;-72
2022/07/22 07:36:26;;;;;;;;;;;;;;;24.86;45.96;100444.22;5073374;28;20382;-72
2022/07/22 07:38:51;;;;;;;;;;;;;;;24.72;46.48;100439.34;5073735;28;19916;-72
2022/07/22 07:41:17;;;;;;;;;;;;;;;24.80;46.24;100440.69;5073585;28;19916;-72
2022/07/22 07:43:42;;;;;;;;;;;;;;;24.82;45.87;100440.38;5073915;28;19924;-72
2022/07/22 07:46:08;;;;;;;;;;;;;;;24.86;46.09;100436.81;5074082;28;19916;-72
2022/07/22 07:48:33;;;;;;;;;;;;;;;24.89;45.84;100447.19;5073857;28;19956;-70
2022/07/22 07:50:58;;;;;;;;;;;;;;;24.94;45.59;100443.63;5074525;28;20366;-72
2022/07/22 07:53:23;;;;;;;;;;;;;;;24.92;45.91;100443.91;5073348;28;20248;-72
2022/07/22 07:55:49;;;;;;;;;;;;;;;24.80;46.02;100446.16;5073112;28;19970;-69
2022/07/22 07:58:14;;;;;;;;;;;;;;;24.90;45.96;100446.06;5073568;28;19917;-69
2022/07/22 08:00:41;;;;;;;;;;;;;;;24.85;46.01;100451.59;5073392;28;19916;-69
2022/07/22 08:03:06;;;;;;;;;;;;;;;24.87;45.99;100441.19;5073397;28;20267;-69
2022/07/22 08:05:31;;;;;;;;;;;;;;;24.87;46.12;100443.94;5087194;28;19916;-69
2022/07/22 08:07:57;;;;;;;;;;;;;;;24.91;45.70;100438.72;5093660;28;19939;-69
2022/07/22 08:10:22;;;;;;;;;;;;;;;24.86;46.00;100441.47;5093553;28;19991;-69
2022/07/22 08:12:47;;;;;;;;;;;;;;;24.90;45.72;100451.53;5097319;28;20358;-69
2022/07/22 08:15:12;;;;;;;;;;;;;;;24.89;45.71;100455.41;5097793;28;19917;-68
2022/07/22 08:17:38;;;;;;;;;;;;;;;24.91;45.79;100447.72;5097995;28;19976;-68
2022/07/22 08:20:04;;;;;;;;;;;;;;;24.97;45.73;100455.91;5097710;28;19939;-69
2022/07/22 08:22:29;;;;;;;;;;;;;;;24.75;46.02;100440.72;5098089;28;19971;-69
2022/07/22 08:24:54;;;;;;;;;;;;;;;24.65;46.45;100435.31;5097069;28;19986;-68
2022/07/22 08:27:20;;;;;;;;;;;;;;;24.72;46.33;100441.28;5097491;28;19928;-68
2022/07/22 08:29:45;;;;;;;;;;;;;;;24.69;46.20;100436.38;5098750;28;19923;-68
2022/07/22 08:32:10;;;;;;;;;;;;;;;24.71;46.04;100439.63;5099472;28;19924;-69
2022/07/22 08:34:35;;;;;;;;;;;;;;;24.64;46.40;100436.38;5097184;28;19923;-68
2022/07/22 08:37:01;;;;;;;;;;;;;;;24.64;46.05;100425.47;5096778;28;20343;-68
2022/07/22 08:39:26;;;;;;;;;;;;;;;24.67;46.33;100427.63;5097337;28;19916;-68
2022/07/22 08:41:51;;;;;;;;;;;;;;;24.72;46.10;100422.97;5097052;28;20317;-69
2022/07/22 08:44:17;;;;;;;;;;;;;;;24.60;46.22;100419.75;5097103;28;19973;-69
2022/07/22 08:46:43;;;;;;;;;;;;;;;24.67;46.21;100420.25;5096680;28;19925;-69
2022/07/22 08:49:09;;;;;;;;;;;;;;;24.73;45.87;100423.75;5097617;28;19916;-69
2022/07/22 08:51:34;;;;;;;;;;;;;;;24.73;46.07;100424.59;5096710;28;20381;-69
2022/07/22 08:53:59;;;;;;;;;;;;;;;24.73;45.99;100418.31;5096351;28;19922;-69
2022/07/22 08:56:24;;;;;;;;;;;;;;;24.81;45.81;100420.44;5096773;28;19923;-69
2022/07/22 08:58:50;;;;;;;;;;;;;;;24.77;45.76;100424.84;5096503;28;20343;-69
2022/07/22 09:01:15;;;;;;;;;;;;;;;24.75;45.92;100413.41;5096758;28;19916;-68
2022/07/22 09:03:50;;;;;;;;;;;;;;;24.68;46.25;100410.97;5096835;28;19928;-69
2022/07/22 09:06:16;;;;;;;;;;;;;;;24.74;45.91;100411.75;5076943;28;19947;-69
2022/07/22 09:08:54;;;;;;;;;;;;;;;24.74;46.00;100414.47;5076087;28;19970;-69
2022/07/22 09:11:21;;;;;;;;;;;;;;;24.70;46.18;100410.69;5076235;28;19916;-69
2022/07/22 09:13:46;;;;;;;;;;;;;;;24.70;45.85;100413.41;5076835;28;19916;-69
2022/07/22 09:16:12;;;;;;;;;;;;;;;24.77;45.88;100402.16;5075671;28;20260;-69
2022/07/22 09:18:49;;;;;;;;;;;;;;;24.78;45.78;100407.34;5075983;28;20286;-68
2022/07/22 09:21:15;;;;;;;;;;;;;;;24.81;45.57;100409.50;5076212;28;19916;-69
2022/07/22 09:23:41;;;;;;;;;;;;;;;24.68;45.90;100407.41;5074463;28;19927;-69
2022/07/22 09:26:06;;;;;;;;;;;;;;;24.80;45.43;100396.13;5075581;28;20019;-69
2022/07/22 09:28:31;;;;;;;;;;;;;;;24.78;46.06;100392.88;5075687;28;19916;-68
2022/07/22 09:30:56;;;;;;;;;;;;;;;24.79;45.86;100391.78;5074481;28;19916;-69
2022/07/22 09:33:22;;;;;;;;;;;;;;;24.73;45.81;100399.16;5075959;28;20008;-69
2022/07/22 09:35:47;;;;;;;;;;;;;;;24.65;46.04;100400.59;5075969;28;19939;-69
2022/07/22 09:38:13;;;;;;;;;;;;;;;24.71;45.73;100393.97;5075251;28;19994;-68
2022/07/22 09:40:42;;;;;;;;;;;;;;;24.80;45.42;100396.97;5075708;28;19986;-68
2022/07/22 09:43:11;;;;;;;;;;;;;;;24.74;45.75;100398.09;5075723;28;19916;-69
2022/07/22 09:45:43;;;;;;;;;;;;;;;24.87;45.34;100389.25;5075393;28;19916;-69
2022/07/22 09:48:08;;;;;;;;;;;;;;;24.92;45.29;100388.41;5075603;28;19950;-70
2022/07/22 09:50:34;;;;;;;;;;;;;;;25.07;44.90;100392.94;5075540;28;19936;-70
2022/07/22 09:52:59;;;;;;;;;;;;;;;24.84;45.19;100392.56;5075223;28;19916;-70
2022/07/22 09:55:25;;;;;;;;;;;;;;;24.90;45.21;100380.47;5075066;28;19917;-70
2022/07/22 09:57:51;;;;;;;;;;;;;;;24.93;45.12;100382.66;5075278;28;19920;-69
2022/07/22 10:00:20;;;;;;;;;;;;;;;24.95;44.98;100381.56;5075072;28;20321;-69
2022/07/22 10:02:49;;;;;;;;;;;;;;;24.97;45.13;100387.56;5074955;28;20385;-70
2022/07/22 10:05:15;;;;;;;;;;;;;;;25.02;44.94;100382.06;5084795;28;20378;-69
2022/07/22 10:07:41;;;;;;;;;;;;;;;24.91;45.02;100387.59;5095091;28;19927;-69
2022/07/22 10:10:07;;;;;;;;;;;;;;;25.02;44.93;100387.50;5095407;28;19916;-70
2022/07/22 10:12:32;;;;;;;;;;;;;;;24.93;45.01;100384.56;5095017;28;20446;-69
2022/07/22 10:14:57;;;;;;;;;;;;;;;25.03;44.67;100386.44;5095507;28;19968;-69
2022/07/22 10:17:22;;;;;;;;;;;;;;;25.00;44.74;100385.06;5095210;28;20382;-69
2022/07/22 10:19:48;;;;;;;;;;;;;;;25.01;44.53;100383.13;5095260;28;20008;-69
2022/07/22 10:22:32;;;;;;;;;;;;;;;25.08;44.71;100375.44;5095571;28;20351;-69
2022/07/22 10:25:00;;;;;;;;;;;;;;;25.10;44.36;100371.31;5094934;28;19920;-69
2022/07/22 10:27:44;;;;;;;;;;;;;;;25.05;44.66;100370.56;5095376;28;19920;-68
2022/07/22 10:30:10;;;;;;;;;;;;;;;24.96;44.57;100372.22;5095076;28;19916;-69
2022/07/22 10:32:35;;;;;;;;;;;;;;;24.97;44.49;100368.41;5096010;28;19916;-69
2022/07/22 10:35:01;;;;;;;;;;;;;;;25.05;44.33;100371.34;5094470;28;20366;-68
2022/07/22 10:37:37;;;;;;;;;;;;;;;25.06;44.47;100366.69;5095810;28;19920;-68
2022/07/22 10:40:13;;;;;;;;;;;;;;;25.14;44.45;100363.34;5096190;28;19999;-68
2022/07/22 10:42:59;;;;;;;;;;;;;;;25.13;44.57;100361.75;5096035;28;19916;-68
2022/07/22 10:45:25;;;;;;;;;;;;;;;25.14;44.41;100363.34;5095634;28;19981;-68
2022/07/22 10:47:54;;;;;;;;;;;;;;;25.11;44.49;100352.97;5095075;28;19919;-67
2022/07/22 10:50:37;;;;;;;;;;;;;;;25.16;44.37;100361.16;5096008;28;19942;-67
2022/07/22 10:53:05;;;;;;;;;;;;;;;25.12;44.61;100365.56;5095156;28;19920;-67
2022/07/22 10:55:31;;;;;;;;;;;;;;;25.10;44.62;100363.13;5094719;28;19927;-68
2022/07/22 10:57:56;;;;;;;;;;;;;;;25.12;44.54;100355.44;5094982;28;19916;-68
2022/07/22 11:00:21;;;;;;;;;;;;;;;25.22;44.54;100343.59;5094677;28;20385;-68
2022/07/22 11:02:47;;;;;;;;;;;;;;;25.20;44.27;100351.28;5094383;28;20353;-68
2022/07/22 11:05:12;;;;;;;;;;;;;;;25.12;44.53;100343.69;5085872;28;19917;-68
2022/07/22 11:07:55;;;;;;;;;;;;;;;25.23;44.26;100350.72;5073617;28;19924;-68
2022/07/22 11:10:20;;;;;;;;;;;;;;;25.23;44.39;100344.41;5074831;28;19944;-68
2022/07/22 11:12:46;;;;;;;;;;;;;;;25.26;44.17;100343.88;5073877;28;20388;-68
2022/07/22 11:15:11;;;;;;;;;;;;;;;25.28;44.43;100342.50;5074112;28;19917;-68
2022/07/22 11:17:37;;;;;;;;;;;;;;;25.23;44.49;100344.41;5074520;28;20272;-68
2022/07/22 11:20:04;;;;;;;;;;;;;;;25.15;44.78;100351.34;5073935;28;20007;-68
2022/07/22 11:22:29;;;;;;;;;;;;;;;25.21;44.41;100350.16;5073662;28;19924;-68
2022/07/22 11:24:54;;;;;;;;;;;;;;;25.28;44.57;100353.44;5073687;28;19921;-69
2022/07/22 11:27:22;;;;;;;;;;;;;;;25.26;44.62;100355.63;5073876;28;19964;-69
2022/07/22 11:29:48;;;;;;;;;;;;;;;25.12;44.64;100343.69;5073855;28;19916;-69
2022/07/22 11:32:14;;;;;;;;;;;;;;;25.26;44.19;100352.09;5073887;28;20316;-69
2022/07/22 11:34:42;;;;;;;;;;;;;;;25.19;44.66;100355.13;5074305;28;20434;-69
2022/07/22 11:37:07;;;;;;;;;;;;;;;25.23;44.46;100349.88;5074358;28;20011;-69
2022/07/22 11:39:33;;;;;;;;;;;;;;;25.28;44.52;100353.44;5073737;28;20334;-69
2022/07/22 11:42:00;;;;;;;;;;;;;;;25.38;44.21;100346.25;5073793;28;19940;-69
2022/07/22 11:44:26;;;;;;;;;;;;;;;25.37;44.08;100352.81;5073664;28;19920;-69
2022/07/22 11:46:51;;;;;;;;;;;;;;;25.21;44.55;100349.34;5072898;28;20014;-68
2022/07/22 11:49:17;;;;;;;;;;;;;;;25.25;44.28;100344.94;5073341;28;20429;-68
2022/07/22 11:51:43;;;;;;;;;;;;;;;25.35;44.00;100352.28;5073670;28;19916;-68
2022/07/22 11:54:08;;;;;;;;;;;;;;;25.22;44.40;100346.34;5073637;28;19939;-68
2022/07/22 11:56:33;;;;;;;;;;;;;;;25.19;44.40;100340.63;5073104;28;20011;-68
2022/07/22 11:59:01;;;;;;;;;;;;;;;25.37;44.34;100336.38;5073567;28;19920;-68
2022/07/22 12:01:27;;;;;;;;;;;;;;;25.30;44.12;100340.28;5073450;28;19916;-68
2022/07/22 12:03:57;;;;;;;;;;;;;;;25.25;44.20;100343.06;5073023;28;19923;-68
2022/07/22 12:06:23;;;;;;;;;;;;;;;25.31;43.70;100335.63;5089779;28;19916;-69
2022/07/22 12:08:49;;;;;;;;;;;;;;;25.25;44.21;100334.00;5093877;28;19962;-69
2022/07/22 12:11:15;;;;;;;;;;;;;;;25.27;44.20;100329.91;5093544;28;19920;-69
2022/07/22 12:13:42;;;;;;;;;;;;;;;25.38;44.11;100329.81;5093489;28;19920;-69
2022/07/22 12:16:17;;;;;;;;;;;;;;;25.25;44.21;100323.94;5093349;28;20273;-69
2022/07/22 12:18:42;;;;;;;;;;;;;;;25.36;44.02;100323.84;5092341;28;19965;-69
2022/07/22 12:21:07;;;;;;;;;;;;;;;25.31;43.94;100319.22;5093283;28;20403;-69
2022/07/22 12:23:33;;;;;;;;;;;;;;;25.19;44.14;100316.81;5093325;28;19923;-69
2022/07/22 12:26:01;;;;;;;;;;;;;;;25.25;44.04;100315.72;5092964;28;19924;-69
2022/07/22 12:28:27;;;;;;;;;;;;;;;25.28;44.27;100315.16;5093182;28;19923;-69